Clearlake Park, California
Current Conditions -  °F | °C
As of 1:56 PM on Saturday 25 Oct 2014 (Local Time) from KUKI Reporting Station
Light Rain Light Rain  
Wind Chill: 62°   Ceiling: 2500
Heat Index: 62°   Visibility: 4mi
Dew Point: 54°   Wind: 0mph
Humidity: 75%   Direction: NA
Pressure: 30"   Gusts: NA
Location:  38.97°N, 122.65°W
Report Text: KUKI 252056Z AUTO 00000KT 4SM -RA FEW020 BKN025 OVC034 17/12 A3000 RMK AO2 RAB1957E32B53 SLP154 P0001 60011 T01670122 51019
Loading
Personal Weather Stations






























Interactive Weather Map
Tropical Storm Tracking
New forecast layout! Learn more

10-Day Weather Forecast

Advertisements
Track Severe Weather on mobile